Time;durP1;ratioP1;P1;durP2;ratioP2;P2;SDS_P1;SDS_P2;PMS_P1;PMS_P2;Temp;Humidity;BMP_temperature;BMP_pressure;BME280_temperature;BME280_humidity;BME280_pressure;Samples;Min_cycle;Max_cycle;Signal;HPM_P1;HPM_P2
2022/06/12 00:00:35;;;;;;;4.78;2.30;;;;;;;23.41;44.41;102000.22;5034035;28;20399;-56
2022/06/12 00:03:02;;;;;;;5.88;2.55;;;;;;;23.42;44.63;102002.00;5034165;28;20391;-57
2022/06/12 00:05:34;;;;;;;5.18;2.42;;;;;;;23.40;44.09;101988.84;5033978;28;20379;-54
2022/06/12 00:08:00;;;;;;;3.25;2.20;;;;;;;23.41;43.97;101994.97;5017357;28;20391;-56
2022/06/12 00:10:26;;;;;;;4.50;2.50;;;;;;;23.40;44.42;102003.72;5017458;28;20962;-57
2022/06/12 00:12:51;;;;;;;4.05;2.10;;;;;;;23.40;44.47;101998.44;5033750;28;20388;-56
2022/06/12 00:15:20;;;;;;;4.43;2.23;;;;;;;23.40;44.23;102007.25;5051929;28;20731;-55
2022/06/12 00:17:45;;;;;;;5.00;2.30;;;;;;;23.39;43.93;102001.94;5033998;28;20425;-51
2022/06/12 00:20:13;;;;;;;4.27;2.20;;;;;;;23.40;44.25;102003.72;5033693;28;20787;-55
2022/06/12 00:22:39;;;;;;;4.10;2.17;;;;;;;23.41;43.97;102005.47;5033832;28;20429;-54
2022/06/12 00:25:08;;;;;;;6.28;2.40;;;;;;;23.39;44.32;102007.19;5033876;28;20392;-52
2022/06/12 00:27:34;;;;;;;4.47;2.30;;;;;;;23.39;44.30;102004.56;5034432;28;20513;-56
2022/06/12 00:29:59;;;;;;;4.50;2.50;;;;;;;23.40;43.94;102003.72;5033881;28;20427;-52
2022/06/12 00:32:27;;;;;;;4.77;2.20;;;;;;;23.40;43.99;102011.59;5051318;28;20422;-56
2022/06/12 00:34:56;;;;;;;4.10;2.25;;;;;;;23.38;43.99;102005.41;5033649;28;20371;-54
2022/06/12 00:37:23;;;;;;;3.65;2.20;;;;;;;23.39;44.64;102005.47;5017496;28;20795;-53
2022/06/12 00:39:51;;;;;;;4.55;2.28;;;;;;;23.38;44.33;101994.91;5033541;28;20451;-53
2022/06/12 00:42:27;;;;;;;4.53;2.30;;;;;;;23.40;44.27;102003.72;5033638;28;20416;-55
2022/06/12 00:44:54;;;;;;;3.70;2.10;;;;;;;23.39;43.94;102009.81;5051034;28;20937;-57
2022/06/12 00:47:20;;;;;;;4.70;2.40;;;;;;;23.37;44.65;101999.28;5051222;28;20392;-54
2022/06/12 00:49:58;;;;;;;3.70;2.10;;;;;;;23.39;44.10;102008.09;5051000;28;20379;-55
2022/06/12 00:52:34;;;;;;;4.60;2.33;;;;;;;23.39;44.20;101996.69;5032926;28;20396;-55
2022/06/12 00:55:25;;;;;;;4.25;2.30;;;;;;;23.39;44.78;101991.41;5033269;28;20399;-55
2022/06/12 00:58:01;;;;;;;4.53;2.30;;;;;;;23.39;44.19;101991.41;5051444;28;20431;-56
2022/06/12 01:00:27;;;;;;;4.05;2.72;;;;;;;23.39;44.40;101999.31;5033108;28;20351;-54
2022/06/12 01:02:53;;;;;;;4.05;2.28;;;;;;;23.39;44.67;101991.41;5016552;28;20387;-55
2022/06/12 01:08:06;;;;;;;4.57;2.40;;;;;;;23.38;44.47;101994.91;5036006;28;20379;-56
2022/06/12 01:10:32;;;;;;;4.10;2.40;;;;;;;23.39;44.34;101996.69;5032851;28;20930;-56
2022/06/12 01:13:01;;;;;;;5.00;2.43;;;;;;;23.29;44.08;101986.00;5033257;28;20501;-53
2022/06/12 01:15:37;;;;;;;4.20;2.53;;;;;;;23.38;44.31;101997.53;5016524;28;20387;-56
2022/06/12 01:18:03;;;;;;;3.67;2.28;;;;;;;23.38;44.07;101990.56;5033163;28;20452;-56
2022/06/12 01:20:32;;;;;;;4.90;2.45;;;;;;;23.31;44.70;101978.13;5033069;28;20462;-56
2022/06/12 01:23:04;;;;;;;4.43;2.33;;;;;;;23.38;43.99;101984.41;5033043;28;20380;-55
2022/06/12 01:25:57;;;;;;;5.07;2.50;;;;;;;23.38;43.75;101985.28;5050895;28;20360;-56
2022/06/12 01:28:45;;;;;;;3.85;2.40;;;;;;;23.38;44.14;101987.03;5050352;28;20856;-53
2022/06/12 01:31:13;;;;;;;3.80;2.30;;;;;;;23.38;43.94;101994.91;5032958;28;20398;-53
2022/06/12 01:34:13;;;;;;;4.43;2.30;;;;;;;23.36;44.09;101988.75;5053833;28;20915;-51
2022/06/12 01:36:57;;;;;;;4.30;2.40;;;;;;;23.25;43.94;101968.41;5054466;28;20376;-52
2022/06/12 01:39:47;;;;;;;4.45;2.35;;;;;;;23.38;43.97;101985.28;5054162;28;20906;-48
2022/06/12 01:42:27;;;;;;;4.65;2.42;;;;;;;23.37;44.05;101977.38;5054324;28;20367;-51
2022/06/12 01:45:08;;;;;;;4.13;2.40;;;;;;;23.37;44.38;101972.09;5019975;28;20899;-51
2022/06/12 01:48:30;;;;;;;3.83;2.20;;;;;;;23.38;44.04;101979.13;5036053;28;20400;-51
2022/06/12 01:51:07;;;;;;;3.90;2.33;;;;;;;23.36;43.96;101970.34;4953475;29;20921;-55
2022/06/12 01:54:09;;;;;;;4.50;2.53;;;;;;;23.35;43.78;101972.09;4953609;29;20738;-49
2022/06/12 01:56:34;;;;;;;4.53;2.67;;;;;;;23.37;44.00;101972.09;5044926;28;20380;-54
2022/06/12 01:59:17;;;;;;;3.93;2.60;;;;;;;23.37;44.17;101974.72;5053729;28;20376;-55
2022/06/12 02:01:53;;;;;;;4.38;2.28;;;;;;;23.37;44.66;101974.72;5054201;28;20921;-53
2022/06/12 02:04:21;;;;;;;3.72;2.17;;;;;;;23.36;44.21;101975.59;5036208;28;20384;-55
2022/06/12 02:07:08;;;;;;;5.18;2.60;;;;;;;23.37;44.58;101977.38;5053619;28;20725;-56
2022/06/12 02:09:42;;;;;;;3.83;2.30;;;;;;;23.34;43.82;101972.97;5036179;28;20432;-53
2022/06/12 02:15:03;;;;;;;3.93;2.40;;;;;;;23.36;44.75;101965.09;5038791;28;20374;-54
2022/06/12 02:17:33;;;;;;;4.78;2.50;;;;;;;23.34;44.59;101963.31;5035970;28;20459;-54
2022/06/12 02:19:58;;;;;;;4.68;2.47;;;;;;;23.36;44.20;101972.97;5036159;28;20379;-55
2022/06/12 02:22:26;;;;;;;3.78;2.25;;;;;;;23.34;44.32;101973.81;5035853;28;20433;-55
2022/06/12 02:24:58;;;;;;;4.13;2.35;;;;;;;23.30;44.60;101966.75;5035614;28;20849;-55
2022/06/12 02:27:29;;;;;;;4.60;2.58;;;;;;;23.34;44.37;101972.97;5019020;28;20478;-53
2022/06/12 02:30:05;;;;;;;3.95;2.22;;;;;;;23.32;44.69;101965.03;5035685;28;20721;-52
2022/06/12 02:32:31;;;;;;;4.25;2.50;;;;;;;23.33;44.21;101972.06;5053287;28;20391;-54
2022/06/12 02:35:15;;;;;;;4.30;2.40;;;;;;;23.33;44.06;101966.78;5035898;28;20376;-55
2022/06/12 02:38:06;;;;;;;3.73;2.50;;;;;;;23.34;44.02;101973.81;5035914;28;20434;-55
2022/06/12 02:40:41;;;;;;;3.78;2.42;;;;;;;23.34;44.30;101973.81;5035813;28;20462;-55
2022/06/12 02:43:14;;;;;;;4.97;2.50;;;;;;;23.34;44.69;101967.69;5035337;28;20836;-54
2022/06/12 02:45:57;;;;;;;3.92;2.30;;;;;;;23.33;44.50;101977.31;5035274;28;20402;-55
2022/06/12 02:48:23;;;;;;;3.45;2.33;;;;;;;23.33;44.36;101972.06;5019098;28;20387;-56
2022/06/12 02:51:07;;;;;;;5.05;2.50;;;;;;;23.32;44.45;101967.66;5035817;28;20388;-52
2022/06/12 02:53:49;;;;;;;4.93;2.75;;;;;;;23.32;44.16;101959.78;5053460;28;20458;-55
2022/06/12 02:56:29;;;;;;;4.72;2.53;;;;;;;23.32;43.92;101954.50;5053392;28;21052;-56
2022/06/12 02:59:02;;;;;;;4.30;2.45;;;;;;;23.31;44.03;101952.75;5035670;28;20379;-56
2022/06/12 03:01:37;;;;;;;3.88;2.50;;;;;;;23.32;44.28;101949.25;5035333;28;20384;-52
2022/06/12 03:04:21;;;;;;;4.53;2.50;;;;;;;23.32;44.71;101949.25;5035499;28;20422;-54
2022/06/12 03:06:46;;;;;;;4.53;3.00;;;;;;;23.30;44.38;101950.06;5035305;28;20402;-55
2022/06/12 03:09:12;;;;;;;4.47;2.60;;;;;;;23.31;44.20;101950.13;5035387;28;20376;-56
2022/06/12 03:11:41;;;;;;;3.90;2.40;;;;;;;23.33;44.13;101951.03;5018265;28;20876;-55
2022/06/12 03:14:13;;;;;;;5.15;2.63;;;;;;;23.31;44.20;101947.50;5018508;28;20437;-56
2022/06/12 03:16:42;;;;;;;4.90;2.97;;;;;;;23.33;44.62;101945.78;5035043;28;20376;-56
2022/06/12 03:19:42;;;;;;;3.67;2.33;;;;;;;23.32;43.70;101944.00;5018406;28;20832;-56
2022/06/12 03:22:33;;;;;;;4.47;3.00;;;;;;;23.33;44.67;101940.50;5016610;28;20446;-53
2022/06/12 03:25:13;;;;;;;4.25;2.60;;;;;;;23.28;44.68;101942.19;5034942;28;20384;-51
2022/06/12 03:28:03;;;;;;;4.25;2.60;;;;;;;23.33;44.20;101945.78;5016118;28;20394;-55
2022/06/12 03:30:40;;;;;;;4.10;2.50;;;;;;;23.32;44.56;101945.72;5012568;28;20402;-55
2022/06/12 03:33:33;;;;;;;5.10;2.70;;;;;;;23.33;44.18;101950.16;5012676;28;20486;-55
2022/06/12 03:36:01;;;;;;;4.35;2.50;;;;;;;23.32;44.37;101954.50;5012795;28;20862;-52
2022/06/12 03:38:47;;;;;;;3.58;2.65;;;;;;;23.31;44.59;101947.50;4979038;28;20875;-55
2022/06/12 03:41:26;;;;;;;3.65;2.60;;;;;;;23.33;44.04;101955.41;4978927;28;20887;-55
2022/06/12 03:43:59;;;;;;;4.43;2.40;;;;;;;23.33;44.28;101955.41;4995080;28;20507;-56
2022/06/12 03:46:36;;;;;;;3.72;2.40;;;;;;;23.32;44.21;101954.50;4995258;28;20410;-55
2022/06/12 03:49:11;;;;;;;4.43;2.40;;;;;;;23.33;44.30;101951.03;5049849;22;20420;-64
2022/06/12 03:51:48;;;;;;;4.45;2.47;;;;;;;23.32;44.53;101954.50;4997538;28;20936;-65
2022/06/12 03:54:32;;;;;;;4.60;2.63;;;;;;;23.32;44.65;101949.25;5015279;28;20385;-64
2022/06/12 04:00:04;;;;;;;4.17;2.40;;;;;;;23.32;44.28;101956.25;5017178;28;20880;-64
2022/06/12 04:02:30;;;;;;;3.85;2.45;;;;;;;23.30;44.22;101953.59;4998568;28;20389;-64
2022/06/12 04:04:57;;;;;;;4.63;2.40;;;;;;;23.33;44.16;101955.41;4997983;28;20533;-64
2022/06/12 04:07:27;;;;;;;4.30;2.58;;;;;;;23.33;44.02;101961.53;5013476;28;20501;-65
2022/06/12 04:09:54;;;;;;;4.53;2.50;;;;;;;23.32;44.33;101959.78;4997725;28;20536;-65
2022/06/12 04:12:28;;;;;;;3.72;2.45;;;;;;;23.32;44.00;101954.50;4997754;28;20428;-65
2022/06/12 04:15:11;;;;;;;4.47;2.60;;;;;;;23.33;44.40;101958.03;5014948;28;20401;-65
2022/06/12 04:17:36;;;;;;;4.60;2.47;;;;;;;23.34;44.52;101957.19;5014277;28;20380;-65
2022/06/12 04:20:05;;;;;;;3.33;2.30;;;;;;;23.37;44.21;101961.59;5014021;28;20373;-65
2022/06/12 04:22:59;;;;;;;3.65;2.33;;;;;;;23.37;43.63;101961.59;4997890;28;20382;-65
2022/06/12 04:25:27;;;;;;;4.05;2.70;;;;;;;23.37;44.39;101956.34;5013807;28;20385;-66
2022/06/12 04:27:53;;;;;;;5.03;2.73;;;;;;;23.36;44.42;101959.81;5031316;28;20366;-66
2022/06/12 04:30:34;;;;;;;5.10;2.80;;;;;;;23.36;44.78;101954.56;5014006;28;20380;-66
2022/06/12 04:33:20;;;;;;;4.28;2.42;;;;;;;23.37;44.58;101961.59;4997207;28;20420;-66
2022/06/12 04:35:51;;;;;;;4.68;2.60;;;;;;;23.36;44.49;101960.72;5013815;28;20416;-65
2022/06/12 04:38:19;;;;;;;3.95;2.40;;;;;;;23.37;44.04;101951.06;5013725;28;20421;-64
2022/06/12 04:40:47;;;;;;;4.70;2.60;;;;;;;23.37;44.41;101953.72;4997401;28;20440;-64
2022/06/12 04:43:12;;;;;;;3.95;2.60;;;;;;;23.37;44.22;101946.72;5031518;28;20382;-65
2022/06/12 04:45:41;;;;;;;3.87;2.50;;;;;;;23.36;43.95;101938.78;5013548;28;20750;-65
2022/06/12 04:48:09;;;;;;;4.10;2.35;;;;;;;23.38;43.76;101942.34;4997088;28;20437;-65
2022/06/12 04:50:34;;;;;;;4.53;2.63;;;;;;;23.38;44.00;101937.06;5013910;28;20381;-65
2022/06/12 04:53:00;;;;;;;4.20;2.83;;;;;;;23.36;44.70;101933.53;5013520;28;20393;-66
2022/06/12 04:55:33;;;;;;;4.45;2.55;;;;;;;23.37;44.02;101936.22;5013535;28;20746;-66
2022/06/12 04:57:59;;;;;;;4.30;2.60;;;;;;;23.37;44.13;101930.06;5031169;28;20879;-66
2022/06/12 05:00:29;;;;;;;3.43;2.53;;;;;;;23.40;43.92;101927.47;5013105;28;20535;-66
2022/06/12 05:02:57;;;;;;;3.88;2.58;;;;;;;23.38;44.05;101930.09;4997262;28;20391;-66
2022/06/12 05:05:26;;;;;;;4.07;2.60;;;;;;;23.36;43.68;101929.19;5013219;28;20381;-66
2022/06/12 05:07:52;;;;;;;3.47;2.58;;;;;;;23.41;44.09;101923.97;5015262;28;21145;-66
2022/06/12 05:10:20;;;;;;;4.55;2.83;;;;;;;23.40;43.99;101915.22;5001016;28;20866;-65
2022/06/12 05:12:45;;;;;;;4.72;2.83;;;;;;;23.42;44.38;101923.13;5017281;28;20437;-66
2022/06/12 05:15:12;;;;;;;4.40;2.70;;;;;;;23.40;43.63;101919.59;5000835;28;20432;-66
2022/06/12 05:17:42;;;;;;;5.00;2.53;;;;;;;23.41;44.27;101918.72;5001112;28;20397;-66
2022/06/12 05:20:10;;;;;;;4.20;2.55;;;;;;;23.41;43.93;101916.09;5001208;28;20766;-66
2022/06/12 05:22:35;;;;;;;5.22;2.88;;;;;;;23.40;43.33;101909.06;5016820;28;20924;-66
2022/06/12 05:25:00;;;;;;;4.40;2.67;;;;;;;23.41;43.90;101913.47;5034897;28;20373;-65
2022/06/12 05:27:31;;;;;;;5.23;3.07;;;;;;;23.41;43.98;101910.84;5016516;28;20396;-66
2022/06/12 05:30:05;;;;;;;4.70;2.80;;;;;;;23.41;43.74;101918.72;5017235;28;20389;-64
2022/06/12 05:32:30;;;;;;;4.45;2.60;;;;;;;23.42;43.65;101928.38;5017394;28;20416;-65
2022/06/12 05:34:55;;;;;;;5.03;2.67;;;;;;;23.42;44.20;101928.38;5017063;28;20762;-65
2022/06/12 05:37:25;;;;;;;4.80;2.73;;;;;;;23.41;44.05;101922.25;5016730;28;20877;-65
2022/06/12 05:39:53;;;;;;;3.67;2.60;;;;;;;23.42;43.61;101917.88;5000280;28;20468;-65
2022/06/12 05:42:20;;;;;;;4.93;2.75;;;;;;;23.42;44.22;101915.22;5000828;28;20917;-65
2022/06/12 05:44:52;;;;;;;4.03;2.80;;;;;;;23.41;43.69;101917.00;5033987;28;20400;-66
2022/06/12 05:47:18;;;;;;;4.50;2.80;;;;;;;23.43;44.07;101919.63;5000614;28;20386;-66
2022/06/12 05:49:48;;;;;;;3.72;2.38;;;;;;;23.32;43.80;101896.69;5016605;28;20757;-66
2022/06/12 05:52:17;;;;;;;5.18;2.88;;;;;;;23.43;44.34;101909.13;5000748;28;20464;-66
2022/06/12 05:54:42;;;;;;;4.22;2.70;;;;;;;23.44;43.41;101916.13;5000785;28;20854;-66
2022/06/12 05:57:08;;;;;;;3.60;2.33;;;;;;;23.43;44.03;101907.38;5016344;28;20396;-65
2022/06/12 05:59:33;;;;;;;5.80;3.33;;;;;;;23.42;43.66;101907.34;5016781;28;20385;-65
2022/06/12 06:02:01;;;;;;;5.20;2.77;;;;;;;23.43;43.86;101914.38;5016515;28;20392;-65
2022/06/12 06:04:29;;;;;;;4.00;2.50;;;;;;;23.37;43.82;101909.03;5016352;28;20461;-66
2022/06/12 06:06:57;;;;;;;4.55;2.60;;;;;;;23.42;44.50;101912.59;5016792;28;20420;-64
2022/06/12 06:09:26;;;;;;;4.88;2.80;;;;;;;23.45;43.69;101920.53;5016542;28;20393;-65
2022/06/12 06:11:52;;;;;;;3.83;2.53;;;;;;;23.43;44.21;101914.38;5000259;28;20397;-65
2022/06/12 06:14:17;;;;;;;5.83;2.77;;;;;;;23.44;43.92;101916.13;5016213;28;20750;-64
2022/06/12 06:16:43;;;;;;;5.00;3.00;;;;;;;23.44;44.02;101917.03;4999774;28;20386;-64
2022/06/12 06:19:09;;;;;;;3.72;2.42;;;;;;;23.45;44.29;101916.19;4999795;28;21043;-64
2022/06/12 06:21:39;;;;;;;4.68;2.50;;;;;;;23.43;44.17;101912.66;5015957;28;20377;-64
2022/06/12 06:24:05;;;;;;;4.35;2.63;;;;;;;23.44;44.00;101916.13;5033915;28;20432;-65
2022/06/12 06:26:30;;;;;;;4.68;2.70;;;;;;;23.44;43.95;101905.63;4999804;28;20389;-65
2022/06/12 06:28:57;;;;;;;5.00;2.60;;;;;;;23.44;43.79;101910.88;5015861;28;20468;-64
2022/06/12 06:31:25;;;;;;;4.60;2.70;;;;;;;23.43;44.33;101910.03;5033464;28;20865;-64
2022/06/12 06:33:51;;;;;;;3.97;2.50;;;;;;;23.45;43.82;101915.28;5016099;28;20377;-65
2022/06/12 06:36:22;;;;;;;3.72;2.47;;;;;;;23.45;44.10;101915.28;5015448;28;20451;-65
2022/06/12 06:38:51;;;;;;;4.47;2.55;;;;;;;23.41;43.86;101900.31;4999098;28;20395;-66
2022/06/12 06:41:20;;;;;;;3.72;2.50;;;;;;;23.43;43.89;101903.84;5015498;28;20373;-64
2022/06/12 06:46:29;;;;;;;4.53;2.60;;;;;;;23.43;44.44;101909.13;5018141;28;20873;-65
2022/06/12 06:48:58;;;;;;;4.37;2.57;;;;;;;23.37;43.42;101894.16;4998656;28;20405;-65
2022/06/12 06:51:23;;;;;;;5.70;2.80;;;;;;;23.43;43.97;101904.75;4998618;28;20830;-65
2022/06/12 06:53:52;;;;;;;4.60;2.70;;;;;;;23.43;44.29;101898.59;5015286;28;20392;-65
2022/06/12 06:56:20;;;;;;;5.82;2.47;;;;;;;23.43;43.87;101904.75;5015169;28;20384;-65
2022/06/12 06:58:46;;;;;;;4.78;2.47;;;;;;;23.42;43.81;101913.50;4998947;28;20412;-65
2022/06/12 07:01:16;;;;;;;4.25;2.55;;;;;;;23.44;43.61;101905.63;5015064;28;20473;-65
2022/06/12 07:03:47;;;;;;;3.80;2.38;;;;;;;23.44;44.03;101903.00;5015268;28;20388;-65
2022/06/12 07:06:17;;;;;;;4.45;2.45;;;;;;;23.36;43.58;101887.13;4998784;28;20399;-65
2022/06/12 07:08:45;;;;;;;4.63;2.67;;;;;;;23.44;43.74;101895.09;4999141;28;20386;-65
2022/06/12 07:11:17;;;;;;;4.80;2.65;;;;;;;23.41;43.98;101892.44;4998811;28;20386;-66
2022/06/12 07:13:43;;;;;;;4.45;2.47;;;;;;;23.46;44.35;101901.28;5015184;28;20729;-66
2022/06/12 07:16:09;;;;;;;4.00;2.47;;;;;;;23.44;43.76;101900.38;5015376;28;20411;-66
2022/06/12 07:18:34;;;;;;;4.57;2.40;;;;;;;23.45;44.03;101907.41;4998777;28;20730;-66
2022/06/12 07:21:01;;;;;;;4.03;2.70;;;;;;;23.45;43.96;101907.41;5015211;28;20401;-66
2022/06/12 07:23:28;;;;;;;7.03;3.05;;;;;;;23.44;44.02;101901.28;4998611;28;20785;-66
2022/06/12 07:26:05;;;;;;;4.40;2.60;;;;;;;23.47;44.38;101897.78;4998571;28;20440;-66
2022/06/12 07:28:32;;;;;;;5.88;2.63;;;;;;;23.45;44.25;101902.13;5015378;28;20366;-66
2022/06/12 07:31:00;;;;;;;4.60;2.90;;;;;;;23.43;43.90;101899.50;4997805;28;20413;-66
2022/06/12 07:33:28;;;;;;;4.95;2.63;;;;;;;23.45;43.78;101902.13;5014789;28;20397;-66
2022/06/12 07:35:56;;;;;;;5.03;2.60;;;;;;;23.44;44.10;101900.38;4998205;28;20381;-66
2022/06/12 07:38:24;;;;;;;4.53;2.60;;;;;;;23.34;43.89;101889.72;4998315;28;20381;-66
2022/06/12 07:40:57;;;;;;;4.97;2.50;;;;;;;23.45;44.06;101896.88;5014413;28;20377;-66
2022/06/12 07:43:23;;;;;;;4.53;2.72;;;;;;;23.45;43.63;101891.63;4998482;28;20393;-66
2022/06/12 07:45:51;;;;;;;4.67;2.30;;;;;;;23.45;43.95;101896.88;5014427;28;20408;-66
2022/06/12 07:48:24;;;;;;;4.50;2.35;;;;;;;23.44;43.41;101888.13;4998134;28;20405;-66
2022/06/12 07:50:54;;;;;;;4.90;2.75;;;;;;;23.45;44.20;101881.09;5014489;28;20408;-66
2022/06/12 07:53:21;;;;;;;3.50;2.20;;;;;;;23.44;43.88;101884.59;5014119;28;20429;-66
2022/06/12 07:55:53;;;;;;;5.40;2.47;;;;;;;23.42;44.02;101876.69;4997960;28;20392;-66
2022/06/12 07:58:30;;;;;;;4.93;2.60;;;;;;;23.43;43.95;101888.09;5014473;28;20380;-66
2022/06/12 08:00:58;;;;;;;4.28;2.38;;;;;;;23.40;43.73;101882.78;4997655;28;20385;-66
2022/06/12 08:03:25;;;;;;;5.53;2.58;;;;;;;23.45;43.98;101896.88;5014138;28;20407;-64
2022/06/12 08:05:51;;;;;;;4.72;2.50;;;;;;;23.44;44.17;101892.47;4997630;28;20881;-65
2022/06/12 08:08:22;;;;;;;4.00;2.27;;;;;;;23.45;43.66;101896.88;5014250;28;20390;-65
2022/06/12 08:10:47;;;;;;;4.72;2.70;;;;;;;23.44;43.58;101890.75;4998048;28;20385;-64
2022/06/12 08:13:18;;;;;;;5.73;2.63;;;;;;;23.45;43.78;101891.63;4997313;28;20404;-65
2022/06/12 08:15:46;;;;;;;5.32;2.55;;;;;;;23.44;43.82;101892.47;5031821;28;20463;-65
2022/06/12 08:18:16;;;;;;;4.72;2.28;;;;;;;23.44;44.31;101890.75;4997583;28;20405;-65
2022/06/12 08:20:51;;;;;;;4.97;2.50;;;;;;;23.44;43.88;101895.09;5014232;28;20719;-65
2022/06/12 08:23:37;;;;;;;5.00;2.67;;;;;;;23.47;43.66;101895.16;5014560;28;20721;-65
2022/06/12 08:26:16;;;;;;;5.57;2.50;;;;;;;23.44;43.80;101895.09;5016064;28;20397;-65
2022/06/12 08:28:48;;;;;;;4.80;2.20;;;;;;;23.44;43.49;101889.84;5013843;28;20587;-65
2022/06/12 08:31:18;;;;;;;5.10;2.85;;;;;;;23.46;43.95;101893.38;4997399;28;20420;-65
2022/06/12 08:33:46;;;;;;;5.63;2.55;;;;;;;23.45;43.88;101881.09;4997434;28;20381;-65
2022/06/12 08:36:13;;;;;;;5.25;2.58;;;;;;;23.46;43.81;101872.34;4997367;28;20412;-65
2022/06/12 08:38:39;;;;;;;4.38;2.40;;;;;;;23.46;43.78;101867.09;4997214;28;20392;-65
2022/06/12 08:41:28;;;;;;;4.55;2.28;;;;;;;23.46;43.67;101877.63;4996704;28;20419;-65
2022/06/12 08:44:02;;;;;;;4.82;2.65;;;;;;;23.46;43.24;101869.72;5030956;28;20372;-64
2022/06/12 08:46:32;;;;;;;4.60;2.30;;;;;;;23.39;43.75;101859.97;5031360;28;20501;-65
2022/06/12 08:49:08;;;;;;;4.40;2.20;;;;;;;23.46;43.16;101867.09;4997106;28;20401;-66
2022/06/12 08:51:40;;;;;;;4.70;2.30;;;;;;;23.46;44.08;101867.09;5013338;28;20409;-65
2022/06/12 08:54:36;;;;;;;4.43;2.25;;;;;;;23.45;44.07;101870.59;5013717;28;20769;-66
2022/06/12 08:57:16;;;;;;;4.72;2.40;;;;;;;23.45;43.79;101870.59;5013624;28;20417;-66
2022/06/12 08:59:53;;;;;;;5.43;2.40;;;;;;;23.46;43.49;101867.09;4997074;28;20426;-65
2022/06/12 09:02:29;;;;;;;4.22;2.42;;;;;;;23.46;43.49;101856.59;4997052;28;20385;-65
2022/06/12 09:05:08;;;;;;;4.63;2.33;;;;;;;23.47;43.26;101858.34;4996995;28;20874;-65
2022/06/12 09:07:51;;;;;;;4.60;2.07;;;;;;;23.46;42.96;101856.59;5014200;28;20381;-65
2022/06/12 09:10:19;;;;;;;4.22;2.47;;;;;;;23.46;43.64;101857.47;5030752;28;20373;-65
2022/06/12 09:13:30;;;;;;;4.50;2.20;;;;;;;23.46;43.57;101851.31;5013271;28;20397;-65
2022/06/12 09:16:10;;;;;;;4.00;2.10;;;;;;;23.46;43.20;101846.97;4969436;28;20510;-66
2022/06/12 09:18:47;;;;;;;3.58;2.10;;;;;;;23.46;43.20;101838.19;4992102;28;20439;-66
2022/06/12 09:21:20;;;;;;;4.47;2.22;;;;;;;23.47;43.66;101837.31;5030808;28;20683;-66
2022/06/12 09:24:03;;;;;;;5.28;2.20;;;;;;;23.47;43.43;101843.47;5031046;28;20404;-66
2022/06/12 09:26:56;;;;;;;3.53;2.00;;;;;;;23.48;43.54;101845.25;5013551;28;20376;-66
2022/06/12 09:29:43;;;;;;;4.72;2.17;;;;;;;23.48;43.74;101839.09;5030884;28;20431;-66
2022/06/12 09:32:39;;;;;;;5.78;2.28;;;;;;;23.48;43.26;101839.09;5030849;28;20456;-66
2022/06/12 09:35:21;;;;;;;3.88;2.00;;;;;;;23.48;43.49;101837.34;5030768;28;20913;-66
2022/06/12 09:38:20;;;;;;;3.22;2.10;;;;;;;23.48;43.10;101839.09;5013122;28;20388;-66
2022/06/12 09:41:17;;;;;;;4.00;2.00;;;;;;;23.47;43.66;101832.97;5030916;28;20821;-66
2022/06/12 09:43:55;;;;;;;4.23;2.10;;;;;;;23.48;43.09;101833.81;5013374;28;20450;-65
2022/06/12 09:46:37;;;;;;;4.60;2.17;;;;;;;23.48;43.02;101834.72;5013231;28;20373;-65
2022/06/12 09:49:21;;;;;;;4.50;2.13;;;;;;;23.49;43.43;101831.25;4975134;23;20761;-56
2022/06/12 09:52:17;;;;;;;3.53;2.00;;;;;;;23.48;42.84;101833.81;4993217;28;20391;-55
2022/06/12 09:54:55;;;;;;;4.15;1.90;;;;;;;23.48;43.08;101828.56;5014255;28;20371;-56
2022/06/12 09:57:38;;;;;;;3.75;2.20;;;;;;;23.50;43.56;101829.47;5015044;28;20454;-56
2022/06/12 10:00:07;;;;;;;4.88;2.30;;;;;;;23.48;42.97;101823.31;4997242;28;20478;-57
2022/06/12 10:02:39;;;;;;;3.17;2.00;;;;;;;23.48;43.23;101813.69;5014269;28;20733;-55
2022/06/12 10:05:15;;;;;;;3.20;1.92;;;;;;;23.51;42.78;101818.09;5014541;28;20388;-56
2022/06/12 10:08:06;;;;;;;2.75;1.85;;;;;;;23.52;42.68;101811.09;4997101;28;20387;-57
2022/06/12 10:10:55;;;;;;;2.85;1.83;;;;;;;23.53;42.81;101811.13;5014206;28;20383;-56
2022/06/12 10:13:26;;;;;;;3.80;2.00;;;;;;;23.53;42.89;101816.38;4996448;28;20426;-56
2022/06/12 10:15:55;;;;;;;4.78;2.30;;;;;;;23.53;42.56;101815.50;4997065;28;20379;-55
2022/06/12 10:18:27;;;;;;;3.60;2.10;;;;;;;23.54;42.34;101812.88;4996714;28;20456;-54
2022/06/12 10:20:57;;;;;;;6.28;2.22;;;;;;;23.46;43.11;101796.13;4996816;28;20387;-56
2022/06/12 10:23:22;;;;;;;3.67;2.00;;;;;;;23.55;43.16;101808.53;4996131;28;20422;-56
2022/06/12 10:25:54;;;;;;;4.88;2.15;;;;;;;23.56;42.91;101805.03;4996219;28;20875;-57
2022/06/12 10:28:23;;;;;;;3.33;1.83;;;;;;;23.55;43.00;101796.25;4996554;28;20441;-55
2022/06/12 10:31:09;;;;;;;3.90;2.10;;;;;;;23.55;42.77;101801.50;4996215;28;20853;-53
2022/06/12 10:33:45;;;;;;;3.63;2.00;;;;;;;23.57;42.68;101802.41;5013972;28;20437;-56
2022/06/12 10:36:26;;;;;;;4.25;2.20;;;;;;;23.57;43.11;101802.41;5014177;28;20383;-56
2022/06/12 10:39:08;;;;;;;4.18;2.22;;;;;;;23.57;43.11;101786.63;4996303;28;20375;-56
2022/06/12 10:41:42;;;;;;;3.33;1.80;;;;;;;23.58;43.46;101793.66;5013739;28;20394;-56
2022/06/12 10:44:28;;;;;;;4.80;2.00;;;;;;;23.59;42.30;101794.56;5013501;28;20414;-56
2022/06/12 10:46:53;;;;;;;3.05;1.75;;;;;;;23.58;42.80;101788.38;4996095;28;20399;-55
2022/06/12 10:49:23;;;;;;;3.83;2.00;;;;;;;23.60;42.73;101788.44;4995877;28;20406;-56
2022/06/12 10:51:50;;;;;;;4.07;2.00;;;;;;;23.57;43.10;101781.38;4995995;28;20464;-55
2022/06/12 10:54:21;;;;;;;2.95;1.73;;;;;;;23.58;42.95;101770.00;4995817;28;20430;-56
2022/06/12 10:57:01;;;;;;;5.53;2.20;;;;;;;23.58;43.50;101772.63;4995631;28;20424;-55
2022/06/12 10:59:38;;;;;;;3.88;1.95;;;;;;;23.61;42.49;101767.41;5013088;28;20725;-54
2022/06/12 11:02:09;;;;;;;2.83;1.70;;;;;;;23.62;42.55;101773.56;4995572;28;20394;-55
2022/06/12 11:04:53;;;;;;;4.75;2.20;;;;;;;23.61;42.87;101783.19;5012347;28;20375;-54
2022/06/12 11:07:41;;;;;;;3.65;1.80;;;;;;;23.63;42.84;101770.06;4995608;28;20387;-54
2022/06/12 11:10:24;;;;;;;3.58;1.98;;;;;;;23.63;42.40;101770.94;5011956;28;20387;-54
2022/06/12 11:13:30;;;;;;;3.38;2.03;;;;;;;23.64;43.11;101770.06;4995030;28;20406;-53
2022/06/12 11:16:02;;;;;;;3.57;1.90;;;;;;;23.66;43.14;101774.47;5012832;28;20855;-57
2022/06/12 11:19:02;;;;;;;4.43;2.15;;;;;;;23.59;42.88;101753.34;5012789;28;20811;-56
2022/06/12 11:21:53;;;;;;;4.50;1.88;;;;;;;23.67;42.92;101765.72;4995292;28;20859;-56
2022/06/12 11:24:19;;;;;;;4.18;2.00;;;;;;;23.67;42.55;101755.19;5008720;28;20809;-57
2022/06/12 11:27:05;;;;;;;4.00;1.80;;;;;;;23.67;42.61;101749.94;4995383;28;20779;-56
2022/06/12 11:29:43;;;;;;;4.15;2.08;;;;;;;23.67;42.68;101750.81;5011909;28;20397;-57
2022/06/12 11:32:15;;;;;;;5.43;2.40;;;;;;;23.67;43.23;101749.94;4995432;28;20427;-57
2022/06/12 11:34:57;;;;;;;4.15;1.90;;;;;;;23.64;42.31;101759.53;5012583;28;20871;-56
2022/06/12 11:37:32;;;;;;;4.07;2.08;;;;;;;23.64;43.18;101756.91;4995456;28;20386;-56
2022/06/12 11:40:42;;;;;;;3.42;1.75;;;;;;;23.65;42.77;101752.56;4978851;28;20433;-54
2022/06/12 11:43:32;;;;;;;3.20;1.90;;;;;;;23.64;42.97;101756.03;4995157;28;20386;-59
2022/06/12 11:46:10;;;;;;;5.13;2.15;;;;;;;23.64;42.50;101746.41;4994960;28;20374;-56
2022/06/12 11:49:23;;;;;;;4.40;1.87;;;;;;;23.67;42.89;101744.66;4994731;28;20396;-57
2022/06/12 11:52:11;;;;;;;3.70;1.80;;;;;;;23.67;42.62;101744.66;4941750;28;20406;-57
2022/06/12 11:54:54;;;;;;;3.95;1.88;;;;;;;23.69;42.51;101737.69;5012323;28;20403;-56
2022/06/12 11:57:57;;;;;;;4.32;1.70;;;;;;;23.70;42.96;101728.94;4994898;28;20406;-57
2022/06/12 12:00:34;;;;;;;3.17;1.83;;;;;;;23.69;43.04;101732.41;4995164;28;20729;-57
2022/06/12 12:03:17;;;;;;;3.57;1.83;;;;;;;23.66;42.43;101722.75;4994888;28;20395;-56
2022/06/12 12:06:13;;;;;;;5.25;2.15;;;;;;;23.68;43.12;101736.81;5012420;28;20760;-57
2022/06/12 12:09:06;;;;;;;3.88;2.30;;;;;;;23.68;42.31;101720.13;5012111;28;20375;-56